<?xml version="1.0" encoding="UTF-8" standalone="no" ?>
<gpx xmlns="http://www.topografix.com/GPX/1/1" xmlns:xsi="http://www.w3.org/2001/XMLSchema-instance" xsi:schemaLocation="http://www.topografix.com/GPX/1/1 http://www.topografix.com/GPX/1/1/gpx.xsd" version="1.1" creator="VisuGPX - https://www.visugpx.com">
  <metadata>
    <name>180824 - Croix de Lorraine</name>
    <desc><![CDATA[Circuit en handbike du 24 août 2018]]></desc>
  </metadata>
  <trk>
    <name><![CDATA[180824 - Croix de Lorraine]]></name>
    <trkseg>
      <trkpt lat="49.32653" lon="-0.38098">
        <ele>10</ele>
      </trkpt>
      <trkpt lat="49.3289" lon="-0.37957">
        <ele>2.4</ele>
      </trkpt>
      <trkpt lat="49.32998" lon="-0.38401">
        <ele>3.6</ele>
      </trkpt>
      <trkpt lat="49.33189" lon="-0.39187">
        <ele>3.3</ele>
      </trkpt>
      <trkpt lat="49.33265" lon="-0.39421">
        <ele>3.7</ele>
      </trkpt>
      <trkpt lat="49.33308" lon="-0.39789">
        <ele>9.8</ele>
      </trkpt>
      <trkpt lat="49.33389" lon="-0.40819">
        <ele>4</ele>
      </trkpt>
      <trkpt lat="49.33518" lon="-0.41829">
        <ele>4</ele>
      </trkpt>
      <trkpt lat="49.33567" lon="-0.42451">
        <ele>2.6</ele>
      </trkpt>
      <trkpt lat="49.33389" lon="-0.42809">
        <ele>3.9</ele>
      </trkpt>
      <trkpt lat="49.33181" lon="-0.42967">
        <ele>5.6</ele>
      </trkpt>
      <trkpt lat="49.32997" lon="-0.43028">
        <ele>-16.69</ele>
        <time>2018-08-24T09:41:24Z</time>
      </trkpt>
      <trkpt lat="49.32925" lon="-0.43094">
        <ele>-17.17</ele>
        <time>2018-08-24T09:42:28Z</time>
      </trkpt>
      <trkpt lat="49.32923" lon="-0.43095">
        <ele>-17.65</ele>
        <time>2018-08-24T09:42:29Z</time>
      </trkpt>
      <trkpt lat="49.32922" lon="-0.43115">
        <ele>-17.17</ele>
        <time>2018-08-24T09:42:36Z</time>
      </trkpt>
      <trkpt lat="49.32929" lon="-0.43222">
        <ele>-14.76</ele>
        <time>2018-08-24T09:42:50Z</time>
      </trkpt>
      <trkpt lat="49.3293" lon="-0.43327">
        <ele>-14.28</ele>
        <time>2018-08-24T09:43:07Z</time>
      </trkpt>
      <trkpt lat="49.32933" lon="-0.43361">
        <ele>-13.32</ele>
        <time>2018-08-24T09:43:13Z</time>
      </trkpt>
      <trkpt lat="49.32939" lon="-0.43397">
        <ele>-11.88</ele>
        <time>2018-08-24T09:43:18Z</time>
      </trkpt>
      <trkpt lat="49.32938" lon="-0.43465">
        <ele>-13.8</ele>
        <time>2018-08-24T09:43:32Z</time>
      </trkpt>
      <trkpt lat="49.32943" lon="-0.43558">
        <ele>-12.84</ele>
        <time>2018-08-24T09:43:44Z</time>
      </trkpt>
      <trkpt lat="49.32951" lon="-0.4367">
        <ele>-13.8</ele>
        <time>2018-08-24T09:44:02Z</time>
      </trkpt>
      <trkpt lat="49.32959" lon="-0.43794">
        <ele>-13.32</ele>
        <time>2018-08-24T09:44:16Z</time>
      </trkpt>
      <trkpt lat="49.32967" lon="-0.4392">
        <ele>-11.88</ele>
        <time>2018-08-24T09:44:31Z</time>
      </trkpt>
      <trkpt lat="49.32976" lon="-0.44062">
        <ele>-12.36</ele>
        <time>2018-08-24T09:44:50Z</time>
      </trkpt>
      <trkpt lat="49.32987" lon="-0.44201">
        <ele>-12.84</ele>
        <time>2018-08-24T09:45:10Z</time>
      </trkpt>
      <trkpt lat="49.32989" lon="-0.44238">
        <ele>-13.8</ele>
        <time>2018-08-24T09:45:23Z</time>
      </trkpt>
      <trkpt lat="49.32987" lon="-0.44241">
        <ele>-13.8</ele>
        <time>2018-08-24T09:45:51Z</time>
      </trkpt>
      <trkpt lat="49.32989" lon="-0.44242">
        <ele>-13.8</ele>
        <time>2018-08-24T09:45:54Z</time>
      </trkpt>
      <trkpt lat="49.33063" lon="-0.44222">
        <ele>-15.24</ele>
        <time>2018-08-24T09:46:19Z</time>
      </trkpt>
      <trkpt lat="49.33079" lon="-0.44237">
        <ele>-16.21</ele>
        <time>2018-08-24T09:46:23Z</time>
      </trkpt>
      <trkpt lat="49.33109" lon="-0.44282">
        <ele>-19.09</ele>
        <time>2018-08-24T09:46:34Z</time>
      </trkpt>
      <trkpt lat="49.3316" lon="-0.44218">
        <ele>-19.09</ele>
        <time>2018-08-24T09:46:50Z</time>
      </trkpt>
      <trkpt lat="49.33207" lon="-0.44135">
        <ele>-19.09</ele>
        <time>2018-08-24T09:47:07Z</time>
      </trkpt>
      <trkpt lat="49.33274" lon="-0.44101">
        <ele>-18.61</ele>
        <time>2018-08-24T09:47:27Z</time>
      </trkpt>
      <trkpt lat="49.33307" lon="-0.44109">
        <ele>-18.13</ele>
        <time>2018-08-24T09:47:41Z</time>
      </trkpt>
      <trkpt lat="49.33313" lon="-0.44122">
        <ele>-17.65</ele>
        <time>2018-08-24T09:47:46Z</time>
      </trkpt>
      <trkpt lat="49.33317" lon="-0.44138">
        <ele>-18.13</ele>
        <time>2018-08-24T09:47:52Z</time>
      </trkpt>
      <trkpt lat="49.3338" lon="-0.44145">
        <ele>-18.61</ele>
        <time>2018-08-24T09:48:11Z</time>
      </trkpt>
      <trkpt lat="49.33441" lon="-0.44174">
        <ele>-18.13</ele>
        <time>2018-08-24T09:48:30Z</time>
      </trkpt>
      <trkpt lat="49.33499" lon="-0.44198">
        <ele>-16.21</ele>
        <time>2018-08-24T09:48:46Z</time>
      </trkpt>
      <trkpt lat="49.33521" lon="-0.44213">
        <ele>-13.32</ele>
        <time>2018-08-24T09:48:56Z</time>
      </trkpt>
      <trkpt lat="49.33534" lon="-0.44284">
        <ele>-13.8</ele>
        <time>2018-08-24T09:49:13Z</time>
      </trkpt>
      <trkpt lat="49.33547" lon="-0.4437">
        <ele>-13.32</ele>
        <time>2018-08-24T09:49:33Z</time>
      </trkpt>
      <trkpt lat="49.33562" lon="-0.44448">
        <ele>-13.8</ele>
        <time>2018-08-24T09:49:50Z</time>
      </trkpt>
      <trkpt lat="49.33563" lon="-0.44509">
        <ele>-14.28</ele>
        <time>2018-08-24T09:50:07Z</time>
      </trkpt>
      <trkpt lat="49.33551" lon="-0.44523">
        <ele>-15.24</ele>
        <time>2018-08-24T09:50:12Z</time>
      </trkpt>
      <trkpt lat="49.33544" lon="-0.44524">
        <ele>-15.72</ele>
        <time>2018-08-24T09:50:15Z</time>
      </trkpt>
      <trkpt lat="49.33538" lon="-0.44534">
        <ele>-14.76</ele>
        <time>2018-08-24T09:50:19Z</time>
      </trkpt>
      <trkpt lat="49.33537" lon="-0.44556">
        <ele>-14.76</ele>
        <time>2018-08-24T09:50:24Z</time>
      </trkpt>
      <trkpt lat="49.33538" lon="-0.44641">
        <ele>-14.76</ele>
        <time>2018-08-24T09:50:41Z</time>
      </trkpt>
      <trkpt lat="49.33538" lon="-0.44748">
        <ele>-14.28</ele>
        <time>2018-08-24T09:50:59Z</time>
      </trkpt>
      <trkpt lat="49.33541" lon="-0.448">
        <ele>-14.76</ele>
        <time>2018-08-24T09:51:08Z</time>
      </trkpt>
      <trkpt lat="49.33545" lon="-0.44913">
        <ele>-14.28</ele>
        <time>2018-08-24T09:51:26Z</time>
      </trkpt>
      <trkpt lat="49.3355" lon="-0.45013">
        <ele>-13.8</ele>
        <time>2018-08-24T09:51:44Z</time>
      </trkpt>
      <trkpt lat="49.33556" lon="-0.45103">
        <ele>-14.28</ele>
        <time>2018-08-24T09:52:01Z</time>
      </trkpt>
      <trkpt lat="49.33557" lon="-0.45181">
        <ele>-14.76</ele>
        <time>2018-08-24T09:52:21Z</time>
      </trkpt>
      <trkpt lat="49.33546" lon="-0.45189">
        <ele>-13.8</ele>
        <time>2018-08-24T09:52:29Z</time>
      </trkpt>
      <trkpt lat="49.33549" lon="-0.45247">
        <ele>-14.76</ele>
        <time>2018-08-24T09:52:45Z</time>
      </trkpt>
      <trkpt lat="49.33556" lon="-0.45312">
        <ele>-14.28</ele>
        <time>2018-08-24T09:53:03Z</time>
      </trkpt>
      <trkpt lat="49.33566" lon="-0.45397">
        <ele>-13.32</ele>
        <time>2018-08-24T09:53:21Z</time>
      </trkpt>
      <trkpt lat="49.33574" lon="-0.45479">
        <ele>-12.84</ele>
        <time>2018-08-24T09:53:40Z</time>
      </trkpt>
      <trkpt lat="49.33579" lon="-0.45512">
        <ele>-12.84</ele>
        <time>2018-08-24T09:53:51Z</time>
      </trkpt>
      <trkpt lat="49.3359" lon="-0.45594">
        <ele>-11.88</ele>
        <time>2018-08-24T09:54:10Z</time>
      </trkpt>
      <trkpt lat="49.33604" lon="-0.45674">
        <ele>-12.84</ele>
        <time>2018-08-24T09:54:30Z</time>
      </trkpt>
      <trkpt lat="49.336" lon="-0.45706">
        <ele>-11.88</ele>
        <time>2018-08-24T09:54:47Z</time>
      </trkpt>
      <trkpt lat="49.33602" lon="-0.45759">
        <ele>-12.84</ele>
        <time>2018-08-24T09:55:01Z</time>
      </trkpt>
      <trkpt lat="49.33581" lon="-0.4577">
        <ele>-13.8</ele>
        <time>2018-08-24T09:55:14Z</time>
      </trkpt>
      <trkpt lat="49.33569" lon="-0.45811">
        <ele>-12.36</ele>
        <time>2018-08-24T09:55:30Z</time>
      </trkpt>
      <trkpt lat="49.3356" lon="-0.45853">
        <ele>-13.32</ele>
        <time>2018-08-24T09:55:42Z</time>
      </trkpt>
      <trkpt lat="49.33559" lon="-0.4586">
        <ele>-12.84</ele>
        <time>2018-08-24T09:55:45Z</time>
      </trkpt>
      <trkpt lat="49.33555" lon="-0.45868">
        <ele>-13.32</ele>
        <time>2018-08-24T09:56:01Z</time>
      </trkpt>
      <trkpt lat="49.33534" lon="-0.45898">
        <ele>-13.8</ele>
        <time>2018-08-24T09:56:34Z</time>
      </trkpt>
      <trkpt lat="49.33493" lon="-0.45955">
        <ele>-13.8</ele>
        <time>2018-08-24T09:56:57Z</time>
      </trkpt>
      <trkpt lat="49.33468" lon="-0.45987">
        <ele>-14.28</ele>
        <time>2018-08-24T09:57:16Z</time>
      </trkpt>
      <trkpt lat="49.33435" lon="-0.46034">
        <ele>-13.8</ele>
        <time>2018-08-24T09:57:37Z</time>
      </trkpt>
      <trkpt lat="49.3342" lon="-0.46054">
        <ele>-13.32</ele>
        <time>2018-08-24T09:57:54Z</time>
      </trkpt>
      <trkpt lat="49.33398" lon="-0.46077">
        <ele>-12.84</ele>
        <time>2018-08-24T09:58:16Z</time>
      </trkpt>
      <trkpt lat="49.33373" lon="-0.46109">
        <ele>-13.32</ele>
        <time>2018-08-24T09:58:30Z</time>
      </trkpt>
      <trkpt lat="49.33356" lon="-0.46138">
        <ele>-13.32</ele>
        <time>2018-08-24T09:58:49Z</time>
      </trkpt>
      <trkpt lat="49.33329" lon="-0.46155">
        <ele>-13.32</ele>
        <time>2018-08-24T09:59:21Z</time>
      </trkpt>
      <trkpt lat="49.33283" lon="-0.4621">
        <ele>-12.84</ele>
        <time>2018-08-24T09:59:37Z</time>
      </trkpt>
      <trkpt lat="49.33239" lon="-0.46273">
        <ele>-12.84</ele>
        <time>2018-08-24T09:59:58Z</time>
      </trkpt>
      <trkpt lat="49.33173" lon="-0.46369">
        <ele>-12.36</ele>
        <time>2018-08-24T10:00:18Z</time>
      </trkpt>
      <trkpt lat="49.33158" lon="-0.46394">
        <ele>-12.36</ele>
        <time>2018-08-24T10:00:23Z</time>
      </trkpt>
      <trkpt lat="49.3316" lon="-0.46453">
        <ele>-12.36</ele>
        <time>2018-08-24T10:00:32Z</time>
      </trkpt>
      <trkpt lat="49.33186" lon="-0.46498">
        <ele>-11.88</ele>
        <time>2018-08-24T10:00:41Z</time>
      </trkpt>
      <trkpt lat="49.33219" lon="-0.46484">
        <ele>-12.36</ele>
        <time>2018-08-24T10:00:50Z</time>
      </trkpt>
      <trkpt lat="49.33315" lon="-0.46343">
        <ele>-11.88</ele>
        <time>2018-08-24T10:01:14Z</time>
      </trkpt>
      <trkpt lat="49.33393" lon="-0.46225">
        <ele>-10.44</ele>
        <time>2018-08-24T10:01:38Z</time>
      </trkpt>
      <trkpt lat="49.33428" lon="-0.46243">
        <ele>-9.96</ele>
        <time>2018-08-24T10:01:50Z</time>
      </trkpt>
      <trkpt lat="49.33441" lon="-0.46249">
        <ele>-10.92</ele>
        <time>2018-08-24T10:01:54Z</time>
      </trkpt>
      <trkpt lat="49.33455" lon="-0.46266">
        <ele>-10.44</ele>
        <time>2018-08-24T10:01:58Z</time>
      </trkpt>
      <trkpt lat="49.33464" lon="-0.4629">
        <ele>-9.96</ele>
        <time>2018-08-24T10:02:02Z</time>
      </trkpt>
      <trkpt lat="49.33469" lon="-0.46321">
        <ele>-10.44</ele>
        <time>2018-08-24T10:02:07Z</time>
      </trkpt>
      <trkpt lat="49.33473" lon="-0.46466">
        <ele>-11.4</ele>
        <time>2018-08-24T10:02:30Z</time>
      </trkpt>
      <trkpt lat="49.33475" lon="-0.46518">
        <ele>-11.4</ele>
        <time>2018-08-24T10:02:39Z</time>
      </trkpt>
      <trkpt lat="49.33488" lon="-0.46557">
        <ele>-10.44</ele>
        <time>2018-08-24T10:02:48Z</time>
      </trkpt>
      <trkpt lat="49.33561" lon="-0.46546">
        <ele>-11.88</ele>
        <time>2018-08-24T10:03:04Z</time>
      </trkpt>
      <trkpt lat="49.3358" lon="-0.46533">
        <ele>-12.84</ele>
        <time>2018-08-24T10:03:17Z</time>
      </trkpt>
      <trkpt lat="49.33604" lon="-0.46511">
        <ele>-11.4</ele>
        <time>2018-08-24T10:03:32Z</time>
      </trkpt>
      <trkpt lat="49.33624" lon="-0.46503">
        <ele>-8.03</ele>
        <time>2018-08-24T10:03:42Z</time>
      </trkpt>
      <trkpt lat="49.33681" lon="-0.46498">
        <ele>-7.07</ele>
        <time>2018-08-24T10:03:58Z</time>
      </trkpt>
      <trkpt lat="49.33709" lon="-0.46592">
        <ele>-6.59</ele>
        <time>2018-08-24T10:04:13Z</time>
      </trkpt>
      <trkpt lat="49.33728" lon="-0.46675">
        <ele>-5.63</ele>
        <time>2018-08-24T10:04:29Z</time>
      </trkpt>
      <trkpt lat="49.33737" lon="-0.46722">
        <ele>-4.67</ele>
        <time>2018-08-24T10:04:49Z</time>
      </trkpt>
      <trkpt lat="49.33749" lon="-0.46748">
        <ele>-5.63</ele>
        <time>2018-08-24T10:05:06Z</time>
      </trkpt>
      <trkpt lat="49.33753" lon="-0.46758">
        <ele>-4.67</ele>
        <time>2018-08-24T10:05:27Z</time>
      </trkpt>
      <trkpt lat="49.33756" lon="-0.46767">
        <ele>-3.23</ele>
        <time>2018-08-24T10:08:21Z</time>
      </trkpt>
      <trkpt lat="49.33739" lon="-0.46773">
        <ele>-2.75</ele>
        <time>2018-08-24T10:08:36Z</time>
      </trkpt>
      <trkpt lat="49.33739" lon="-0.46767">
        <ele>-3.23</ele>
        <time>2018-08-24T10:08:38Z</time>
      </trkpt>
      <trkpt lat="49.33738" lon="-0.46723">
        <ele>-3.71</ele>
        <time>2018-08-24T10:08:54Z</time>
      </trkpt>
      <trkpt lat="49.33725" lon="-0.46674">
        <ele>-4.19</ele>
        <time>2018-08-24T10:09:13Z</time>
      </trkpt>
      <trkpt lat="49.33724" lon="-0.46669">
        <ele>-4.19</ele>
        <time>2018-08-24T10:09:43Z</time>
      </trkpt>
      <trkpt lat="49.33715" lon="-0.46621">
        <ele>-4.67</ele>
        <time>2018-08-24T10:09:57Z</time>
      </trkpt>
      <trkpt lat="49.33711" lon="-0.46589">
        <ele>-5.15</ele>
        <time>2018-08-24T10:10:15Z</time>
      </trkpt>
      <trkpt lat="49.33694" lon="-0.46521">
        <ele>-5.63</ele>
        <time>2018-08-24T10:10:37Z</time>
      </trkpt>
      <trkpt lat="49.33685" lon="-0.46424">
        <ele>-6.59</ele>
        <time>2018-08-24T10:10:57Z</time>
      </trkpt>
      <trkpt lat="49.33683" lon="-0.46394">
        <ele>-7.07</ele>
        <time>2018-08-24T10:11:02Z</time>
      </trkpt>
      <trkpt lat="49.3367" lon="-0.46323">
        <ele>-6.11</ele>
        <time>2018-08-24T10:11:14Z</time>
      </trkpt>
      <trkpt lat="49.33659" lon="-0.46303">
        <ele>-6.59</ele>
        <time>2018-08-24T10:11:18Z</time>
      </trkpt>
      <trkpt lat="49.33643" lon="-0.46281">
        <ele>-6.59</ele>
        <time>2018-08-24T10:11:23Z</time>
      </trkpt>
      <trkpt lat="49.33591" lon="-0.46193">
        <ele>-6.11</ele>
        <time>2018-08-24T10:11:44Z</time>
      </trkpt>
      <trkpt lat="49.33589" lon="-0.4615">
        <ele>-6.59</ele>
        <time>2018-08-24T10:11:58Z</time>
      </trkpt>
      <trkpt lat="49.33629" lon="-0.46085">
        <ele>-6.11</ele>
        <time>2018-08-24T10:12:16Z</time>
      </trkpt>
      <trkpt lat="49.33641" lon="-0.46107">
        <ele>-4.67</ele>
        <time>2018-08-24T10:12:29Z</time>
      </trkpt>
      <trkpt lat="49.33638" lon="-0.46115">
        <ele>-4.67</ele>
        <time>2018-08-24T10:12:32Z</time>
      </trkpt>
      <trkpt lat="49.33644" lon="-0.46127">
        <ele>-4.67</ele>
        <time>2018-08-24T10:12:37Z</time>
      </trkpt>
      <trkpt lat="49.33666" lon="-0.46144">
        <ele>-4.19</ele>
        <time>2018-08-24T10:12:50Z</time>
      </trkpt>
      <trkpt lat="49.33692" lon="-0.4611">
        <ele>-4.67</ele>
        <time>2018-08-24T10:13:09Z</time>
      </trkpt>
      <trkpt lat="49.33688" lon="-0.45991">
        <ele>-6.11</ele>
        <time>2018-08-24T10:13:33Z</time>
      </trkpt>
      <trkpt lat="49.33672" lon="-0.4592">
        <ele>-6.11</ele>
        <time>2018-08-24T10:13:54Z</time>
      </trkpt>
      <trkpt lat="49.3367" lon="-0.45854">
        <ele>-4.67</ele>
        <time>2018-08-24T10:14:17Z</time>
      </trkpt>
      <trkpt lat="49.33669" lon="-0.45802">
        <ele>-4.67</ele>
        <time>2018-08-24T10:14:37Z</time>
      </trkpt>
      <trkpt lat="49.33673" lon="-0.45797">
        <ele>-5.15</ele>
        <time>2018-08-24T10:14:47Z</time>
      </trkpt>
      <trkpt lat="49.33679" lon="-0.45795">
        <ele>-5.15</ele>
        <time>2018-08-24T10:16:01Z</time>
      </trkpt>
      <trkpt lat="49.33677" lon="-0.45804">
        <ele>-6.11</ele>
        <time>2018-08-24T10:16:18Z</time>
      </trkpt>
      <trkpt lat="49.33671" lon="-0.45815">
        <ele>-5.15</ele>
        <time>2018-08-24T10:17:19Z</time>
      </trkpt>
      <trkpt lat="49.33658" lon="-0.45866">
        <ele>-4.67</ele>
        <time>2018-08-24T10:17:41Z</time>
      </trkpt>
      <trkpt lat="49.33669" lon="-0.45896">
        <ele>-4.67</ele>
        <time>2018-08-24T10:17:58Z</time>
      </trkpt>
      <trkpt lat="49.33671" lon="-0.459">
        <ele>-4.67</ele>
        <time>2018-08-24T10:18:01Z</time>
      </trkpt>
      <trkpt lat="49.33665" lon="-0.45922">
        <ele>-4.67</ele>
        <time>2018-08-24T10:18:09Z</time>
      </trkpt>
      <trkpt lat="49.3363" lon="-0.45965">
        <ele>-4.67</ele>
        <time>2018-08-24T10:18:25Z</time>
      </trkpt>
      <trkpt lat="49.33586" lon="-0.46028">
        <ele>-4.67</ele>
        <time>2018-08-24T10:18:50Z</time>
      </trkpt>
      <trkpt lat="49.33537" lon="-0.46095">
        <ele>-4.67</ele>
        <time>2018-08-24T10:19:14Z</time>
      </trkpt>
      <trkpt lat="49.33488" lon="-0.46135">
        <ele>-4.67</ele>
        <time>2018-08-24T10:19:35Z</time>
      </trkpt>
      <trkpt lat="49.33444" lon="-0.46152">
        <ele>-4.67</ele>
        <time>2018-08-24T10:19:58Z</time>
      </trkpt>
      <trkpt lat="49.33432" lon="-0.46161">
        <ele>-4.67</ele>
        <time>2018-08-24T10:20:11Z</time>
      </trkpt>
      <trkpt lat="49.33399" lon="-0.46212">
        <ele>-4.19</ele>
        <time>2018-08-24T10:20:29Z</time>
      </trkpt>
      <trkpt lat="49.33388" lon="-0.46247">
        <ele>-4.19</ele>
        <time>2018-08-24T10:20:42Z</time>
      </trkpt>
      <trkpt lat="49.33315" lon="-0.46357">
        <ele>-4.19</ele>
        <time>2018-08-24T10:21:07Z</time>
      </trkpt>
      <trkpt lat="49.33257" lon="-0.46438">
        <ele>-3.71</ele>
        <time>2018-08-24T10:21:28Z</time>
      </trkpt>
      <trkpt lat="49.3321" lon="-0.46504">
        <ele>-4.19</ele>
        <time>2018-08-24T10:21:44Z</time>
      </trkpt>
      <trkpt lat="49.33194" lon="-0.46517">
        <ele>-4.19</ele>
        <time>2018-08-24T10:21:49Z</time>
      </trkpt>
      <trkpt lat="49.33177" lon="-0.46507">
        <ele>-4.19</ele>
        <time>2018-08-24T10:21:54Z</time>
      </trkpt>
      <trkpt lat="49.33144" lon="-0.46446">
        <ele>-4.67</ele>
        <time>2018-08-24T10:22:07Z</time>
      </trkpt>
      <trkpt lat="49.33174" lon="-0.46374">
        <ele>-4.19</ele>
        <time>2018-08-24T10:22:23Z</time>
      </trkpt>
      <trkpt lat="49.33185" lon="-0.46358">
        <ele>-4.19</ele>
        <time>2018-08-24T10:22:28Z</time>
      </trkpt>
      <trkpt lat="49.33181" lon="-0.4634">
        <ele>-4.67</ele>
        <time>2018-08-24T10:22:32Z</time>
      </trkpt>
      <trkpt lat="49.33121" lon="-0.46243">
        <ele>-3.23</ele>
        <time>2018-08-24T10:22:49Z</time>
      </trkpt>
      <trkpt lat="49.3309" lon="-0.46171">
        <ele>-3.71</ele>
        <time>2018-08-24T10:23:00Z</time>
      </trkpt>
      <trkpt lat="49.33035" lon="-0.46064">
        <ele>-2.27</ele>
        <time>2018-08-24T10:23:17Z</time>
      </trkpt>
      <trkpt lat="49.3301" lon="-0.45909">
        <ele>1.1</ele>
        <time>2018-08-24T10:23:35Z</time>
      </trkpt>
      <trkpt lat="49.32971" lon="-0.45794">
        <ele>2.54</ele>
        <time>2018-08-24T10:23:50Z</time>
      </trkpt>
      <trkpt lat="49.32956" lon="-0.45788">
        <ele>2.54</ele>
        <time>2018-08-24T10:23:56Z</time>
      </trkpt>
      <trkpt lat="49.32937" lon="-0.45737">
        <ele>0.14</ele>
        <time>2018-08-24T10:24:26Z</time>
      </trkpt>
      <trkpt lat="49.32966" lon="-0.45707">
        <ele>-0.82</ele>
        <time>2018-08-24T10:24:38Z</time>
      </trkpt>
      <trkpt lat="49.33003" lon="-0.45618">
        <ele>-2.75</ele>
        <time>2018-08-24T10:25:01Z</time>
      </trkpt>
      <trkpt lat="49.3302" lon="-0.45535">
        <ele>-3.23</ele>
        <time>2018-08-24T10:25:20Z</time>
      </trkpt>
      <trkpt lat="49.32979" lon="-0.45517">
        <ele>-2.27</ele>
        <time>2018-08-24T10:25:35Z</time>
      </trkpt>
      <trkpt lat="49.32913" lon="-0.45538">
        <ele>1.1</ele>
        <time>2018-08-24T10:25:56Z</time>
      </trkpt>
      <trkpt lat="49.3281" lon="-0.45579">
        <ele>5.91</ele>
        <time>2018-08-24T10:26:31Z</time>
      </trkpt>
      <trkpt lat="49.3278" lon="-0.4558">
        <ele>6.87</ele>
        <time>2018-08-24T10:26:52Z</time>
      </trkpt>
      <trkpt lat="49.32762" lon="-0.45574">
        <ele>8.79</ele>
        <time>2018-08-24T10:27:08Z</time>
      </trkpt>
      <trkpt lat="49.32588" lon="-0.45499">
        <ele>12.63</ele>
        <time>2018-08-24T10:27:59Z</time>
      </trkpt>
      <trkpt lat="49.32583" lon="-0.45494">
        <ele>12.63</ele>
        <time>2018-08-24T10:28:04Z</time>
      </trkpt>
      <trkpt lat="49.32581" lon="-0.45476">
        <ele>13.12</ele>
        <time>2018-08-24T10:28:10Z</time>
      </trkpt>
      <trkpt lat="49.32586" lon="-0.45448">
        <ele>13.6</ele>
        <time>2018-08-24T10:28:14Z</time>
      </trkpt>
      <trkpt lat="49.32581" lon="-0.45331">
        <ele>13.6</ele>
        <time>2018-08-24T10:28:37Z</time>
      </trkpt>
      <trkpt lat="49.32573" lon="-0.4531">
        <ele>13.6</ele>
        <time>2018-08-24T10:28:56Z</time>
      </trkpt>
      <trkpt lat="49.32566" lon="-0.45202">
        <ele>14.08</ele>
        <time>2018-08-24T10:29:16Z</time>
      </trkpt>
      <trkpt lat="49.32567" lon="-0.45198">
        <ele>13.6</ele>
        <time>2018-08-24T10:29:18Z</time>
      </trkpt>
      <trkpt lat="49.32605" lon="-0.45188">
        <ele>13.6</ele>
        <time>2018-08-24T10:29:33Z</time>
      </trkpt>
      <trkpt lat="49.32683" lon="-0.45174">
        <ele>11.67</ele>
        <time>2018-08-24T10:29:50Z</time>
      </trkpt>
      <trkpt lat="49.32707" lon="-0.45157">
        <ele>10.71</ele>
        <time>2018-08-24T10:29:55Z</time>
      </trkpt>
      <trkpt lat="49.32716" lon="-0.45152">
        <ele>10.71</ele>
        <time>2018-08-24T10:29:57Z</time>
      </trkpt>
      <trkpt lat="49.32755" lon="-0.45134">
        <ele>9.27</ele>
        <time>2018-08-24T10:30:10Z</time>
      </trkpt>
      <trkpt lat="49.32751" lon="-0.45086">
        <ele>9.27</ele>
        <time>2018-08-24T10:30:18Z</time>
      </trkpt>
      <trkpt lat="49.32738" lon="-0.4491">
        <ele>11.19</ele>
        <time>2018-08-24T10:30:42Z</time>
      </trkpt>
      <trkpt lat="49.32729" lon="-0.44772">
        <ele>12.15</ele>
        <time>2018-08-24T10:31:00Z</time>
      </trkpt>
      <trkpt lat="49.32728" lon="-0.44732">
        <ele>12.63</ele>
        <time>2018-08-24T10:31:11Z</time>
      </trkpt>
      <trkpt lat="49.32723" lon="-0.44623">
        <ele>12.63</ele>
        <time>2018-08-24T10:31:27Z</time>
      </trkpt>
      <trkpt lat="49.32718" lon="-0.44524">
        <ele>13.6</ele>
        <time>2018-08-24T10:31:43Z</time>
      </trkpt>
      <trkpt lat="49.32717" lon="-0.44496">
        <ele>13.6</ele>
        <time>2018-08-24T10:31:47Z</time>
      </trkpt>
      <trkpt lat="49.32712" lon="-0.44423">
        <ele>14.08</ele>
        <time>2018-08-24T10:31:56Z</time>
      </trkpt>
      <trkpt lat="49.3271" lon="-0.44338">
        <ele>13.12</ele>
        <time>2018-08-24T10:32:09Z</time>
      </trkpt>
      <trkpt lat="49.32704" lon="-0.44173">
        <ele>10.71</ele>
        <time>2018-08-24T10:32:27Z</time>
      </trkpt>
      <trkpt lat="49.32693" lon="-0.43976">
        <ele>9.27</ele>
        <time>2018-08-24T10:32:50Z</time>
      </trkpt>
      <trkpt lat="49.32684" lon="-0.43836">
        <ele>7.83</ele>
        <time>2018-08-24T10:33:09Z</time>
      </trkpt>
      <trkpt lat="49.32669" lon="-0.43629">
        <ele>6.39</ele>
        <time>2018-08-24T10:33:34Z</time>
      </trkpt>
      <trkpt lat="49.32666" lon="-0.43589">
        <ele>5.42</ele>
        <time>2018-08-24T10:33:38Z</time>
      </trkpt>
      <trkpt lat="49.32651" lon="-0.4335">
        <ele>3.5</ele>
        <time>2018-08-24T10:34:00Z</time>
      </trkpt>
      <trkpt lat="49.32644" lon="-0.43231">
        <ele>4.46</ele>
        <time>2018-08-24T10:34:17Z</time>
      </trkpt>
      <trkpt lat="49.32647" lon="-0.43186">
        <ele>5.91</ele>
        <time>2018-08-24T10:34:31Z</time>
      </trkpt>
      <trkpt lat="49.32655" lon="-0.43151">
        <ele>5.42</ele>
        <time>2018-08-24T10:34:56Z</time>
      </trkpt>
      <trkpt lat="49.32663" lon="-0.43066">
        <ele>5.91</ele>
        <time>2018-08-24T10:35:13Z</time>
      </trkpt>
      <trkpt lat="49.32682" lon="-0.42991">
        <ele>4.94</ele>
        <time>2018-08-24T10:35:29Z</time>
      </trkpt>
      <trkpt lat="49.32713" lon="-0.42908">
        <ele>5.91</ele>
        <time>2018-08-24T10:35:47Z</time>
      </trkpt>
      <trkpt lat="49.32754" lon="-0.42798">
        <ele>5.42</ele>
        <time>2018-08-24T10:36:08Z</time>
      </trkpt>
      <trkpt lat="49.32795" lon="-0.42682">
        <ele>3.98</ele>
        <time>2018-08-24T10:36:31Z</time>
      </trkpt>
      <trkpt lat="49.32805" lon="-0.42654">
        <ele>3.02</ele>
        <time>2018-08-24T10:36:38Z</time>
      </trkpt>
      <trkpt lat="49.32812" lon="-0.42614">
        <ele>3.5</ele>
        <time>2018-08-24T10:36:45Z</time>
      </trkpt>
      <trkpt lat="49.32811" lon="-0.42607">
        <ele>3.5</ele>
        <time>2018-08-24T10:36:47Z</time>
      </trkpt>
      <trkpt lat="49.32808" lon="-0.42596">
        <ele>3.5</ele>
        <time>2018-08-24T10:36:50Z</time>
      </trkpt>
      <trkpt lat="49.32806" lon="-0.42522">
        <ele>2.06</ele>
        <time>2018-08-24T10:37:10Z</time>
      </trkpt>
      <trkpt lat="49.32818" lon="-0.42514">
        <ele>2.54</ele>
        <time>2018-08-24T10:37:16Z</time>
      </trkpt>
      <trkpt lat="49.32873" lon="-0.42497">
        <ele>1.1</ele>
        <time>2018-08-24T10:37:31Z</time>
      </trkpt>
      <trkpt lat="49.32843" lon="-0.42425">
        <ele>2.06</ele>
        <time>2018-08-24T10:37:49Z</time>
      </trkpt>
      <trkpt lat="49.32775" lon="-0.4238">
        <ele>2.54</ele>
        <time>2018-08-24T10:38:06Z</time>
      </trkpt>
      <trkpt lat="49.32777" lon="-0.42307">
        <ele>3.5</ele>
        <time>2018-08-24T10:38:21Z</time>
      </trkpt>
      <trkpt lat="49.32769" lon="-0.4215">
        <ele>4.94</ele>
        <time>2018-08-24T10:38:47Z</time>
      </trkpt>
      <trkpt lat="49.32762" lon="-0.42097">
        <ele>4.46</ele>
        <time>2018-08-24T10:39:04Z</time>
      </trkpt>
      <trkpt lat="49.32762" lon="-0.4209">
        <ele>4.46</ele>
        <time>2018-08-24T10:39:06Z</time>
      </trkpt>
      <trkpt lat="49.32757" lon="-0.41961">
        <ele>4.94</ele>
        <time>2018-08-24T10:39:26Z</time>
      </trkpt>
      <trkpt lat="49.32754" lon="-0.41835">
        <ele>6.39</ele>
        <time>2018-08-24T10:39:46Z</time>
      </trkpt>
      <trkpt lat="49.32754" lon="-0.417">
        <ele>5.91</ele>
        <time>2018-08-24T10:40:08Z</time>
      </trkpt>
      <trkpt lat="49.32754" lon="-0.41564">
        <ele>6.87</ele>
        <time>2018-08-24T10:40:27Z</time>
      </trkpt>
      <trkpt lat="49.32756" lon="-0.41501">
        <ele>5.42</ele>
        <time>2018-08-24T10:40:35Z</time>
      </trkpt>
      <trkpt lat="49.32754" lon="-0.41344">
        <ele>6.39</ele>
        <time>2018-08-24T10:41:01Z</time>
      </trkpt>
      <trkpt lat="49.32743" lon="-0.41247">
        <ele>5.91</ele>
        <time>2018-08-24T10:41:24Z</time>
      </trkpt>
      <trkpt lat="49.32731" lon="-0.41138">
        <ele>5.91</ele>
        <time>2018-08-24T10:41:48Z</time>
      </trkpt>
      <trkpt lat="49.32721" lon="-0.41049">
        <ele>6.39</ele>
        <time>2018-08-24T10:42:05Z</time>
      </trkpt>
      <trkpt lat="49.32706" lon="-0.40946">
        <ele>5.91</ele>
        <time>2018-08-24T10:42:24Z</time>
      </trkpt>
      <trkpt lat="49.32685" lon="-0.40834">
        <ele>5.91</ele>
        <time>2018-08-24T10:42:44Z</time>
      </trkpt>
      <trkpt lat="49.32667" lon="-0.40738">
        <ele>6.39</ele>
        <time>2018-08-24T10:43:04Z</time>
      </trkpt>
      <trkpt lat="49.32648" lon="-0.40632">
        <ele>6.39</ele>
        <time>2018-08-24T10:43:25Z</time>
      </trkpt>
      <trkpt lat="49.32629" lon="-0.40529">
        <ele>6.87</ele>
        <time>2018-08-24T10:43:43Z</time>
      </trkpt>
      <trkpt lat="49.32617" lon="-0.4043">
        <ele>6.87</ele>
        <time>2018-08-24T10:44:01Z</time>
      </trkpt>
      <trkpt lat="49.32606" lon="-0.40348">
        <ele>7.35</ele>
        <time>2018-08-24T10:44:14Z</time>
      </trkpt>
      <trkpt lat="49.32591" lon="-0.40241">
        <ele>7.35</ele>
        <time>2018-08-24T10:44:32Z</time>
      </trkpt>
      <trkpt lat="49.32569" lon="-0.40109">
        <ele>5.91</ele>
        <time>2018-08-24T10:44:55Z</time>
      </trkpt>
      <trkpt lat="49.32558" lon="-0.4006">
        <ele>7.35</ele>
        <time>2018-08-24T10:45:13Z</time>
      </trkpt>
      <trkpt lat="49.32559" lon="-0.40059">
        <ele>7.35</ele>
        <time>2018-08-24T10:46:03Z</time>
      </trkpt>
      <trkpt lat="49.32559" lon="-0.40056">
        <ele>6.87</ele>
        <time>2018-08-24T10:46:05Z</time>
      </trkpt>
      <trkpt lat="49.32577" lon="-0.40045">
        <ele>5.91</ele>
        <time>2018-08-24T10:46:12Z</time>
      </trkpt>
      <trkpt lat="49.32656" lon="-0.39997">
        <ele>6.39</ele>
        <time>2018-08-24T10:46:33Z</time>
      </trkpt>
      <trkpt lat="49.32734" lon="-0.39954">
        <ele>5.91</ele>
        <time>2018-08-24T10:46:51Z</time>
      </trkpt>
      <trkpt lat="49.32788" lon="-0.3993">
        <ele>4.94</ele>
        <time>2018-08-24T10:47:09Z</time>
      </trkpt>
      <trkpt lat="49.32816" lon="-0.39912">
        <ele>5.91</ele>
        <time>2018-08-24T10:47:25Z</time>
      </trkpt>
      <trkpt lat="49.3282" lon="-0.3991">
        <ele>5.42</ele>
        <time>2018-08-24T10:47:41Z</time>
      </trkpt>
      <trkpt lat="49.32819" lon="-0.39908">
        <ele>5.91</ele>
        <time>2018-08-24T10:47:58Z</time>
      </trkpt>
      <trkpt lat="49.32873" lon="-0.39878">
        <ele>5.42</ele>
        <time>2018-08-24T10:48:17Z</time>
      </trkpt>
      <trkpt lat="49.32944" lon="-0.39842">
        <ele>5.91</ele>
        <time>2018-08-24T10:48:36Z</time>
      </trkpt>
      <trkpt lat="49.33018" lon="-0.39812">
        <ele>5.91</ele>
        <time>2018-08-24T10:48:57Z</time>
      </trkpt>
      <trkpt lat="49.33072" lon="-0.39796">
        <ele>6.39</ele>
        <time>2018-08-24T10:49:17Z</time>
      </trkpt>
      <trkpt lat="49.33112" lon="-0.39786">
        <ele>4.94</ele>
        <time>2018-08-24T10:49:39Z</time>
      </trkpt>
      <trkpt lat="49.332" lon="-0.39776">
        <ele>6.39</ele>
        <time>2018-08-24T10:50:14Z</time>
      </trkpt>
      <trkpt lat="49.33222" lon="-0.39775">
        <ele>6.39</ele>
        <time>2018-08-24T10:50:21Z</time>
      </trkpt>
      <trkpt lat="49.33263" lon="-0.39771">
        <ele>6.39</ele>
        <time>2018-08-24T10:50:34Z</time>
      </trkpt>
      <trkpt lat="49.33266" lon="-0.39768">
        <ele>5.91</ele>
        <time>2018-08-24T10:50:38Z</time>
      </trkpt>
      <trkpt lat="49.33271" lon="-0.3975">
        <ele>5.91</ele>
        <time>2018-08-24T10:50:46Z</time>
      </trkpt>
      <trkpt lat="49.33262" lon="-0.39678">
        <ele>5.42</ele>
        <time>2018-08-24T10:50:55Z</time>
      </trkpt>
      <trkpt lat="49.33252" lon="-0.39586">
        <ele>4.94</ele>
        <time>2018-08-24T10:51:08Z</time>
      </trkpt>
      <trkpt lat="49.33234" lon="-0.39464">
        <ele>4.46</ele>
        <time>2018-08-24T10:51:30Z</time>
      </trkpt>
      <trkpt lat="49.33225" lon="-0.39418">
        <ele>3.5</ele>
        <time>2018-08-24T10:51:48Z</time>
      </trkpt>
      <trkpt lat="49.33209" lon="-0.39386">
        <ele>3.02</ele>
        <time>2018-08-24T10:52:07Z</time>
      </trkpt>
      <trkpt lat="49.33192" lon="-0.39342">
        <ele>3.02</ele>
        <time>2018-08-24T10:52:23Z</time>
      </trkpt>
      <trkpt lat="49.33171" lon="-0.39281">
        <ele>2.54</ele>
        <time>2018-08-24T10:52:44Z</time>
      </trkpt>
      <trkpt lat="49.33163" lon="-0.39227">
        <ele>3.02</ele>
        <time>2018-08-24T10:52:56Z</time>
      </trkpt>
      <trkpt lat="49.33144" lon="-0.39174">
        <ele>3.02</ele>
        <time>2018-08-24T10:53:11Z</time>
      </trkpt>
      <trkpt lat="49.33146" lon="-0.39167">
        <ele>2.54</ele>
        <time>2018-08-24T10:53:15Z</time>
      </trkpt>
      <trkpt lat="49.33136" lon="-0.39142">
        <ele>3.02</ele>
        <time>2018-08-24T10:53:24Z</time>
      </trkpt>
      <trkpt lat="49.33107" lon="-0.39045">
        <ele>3.02</ele>
        <time>2018-08-24T10:53:40Z</time>
      </trkpt>
      <trkpt lat="49.33094" lon="-0.39001">
        <ele>3.02</ele>
        <time>2018-08-24T10:53:51Z</time>
      </trkpt>
      <trkpt lat="49.33084" lon="-0.3897">
        <ele>2.06</ele>
        <time>2018-08-24T10:54:00Z</time>
      </trkpt>
      <trkpt lat="49.33083" lon="-0.38952">
        <ele>2.54</ele>
        <time>2018-08-24T10:54:05Z</time>
      </trkpt>
      <trkpt lat="49.33059" lon="-0.38843">
        <ele>3.02</ele>
        <time>2018-08-24T10:54:28Z</time>
      </trkpt>
      <trkpt lat="49.33049" lon="-0.38795">
        <ele>2.06</ele>
        <time>2018-08-24T10:54:45Z</time>
      </trkpt>
      <trkpt lat="49.33043" lon="-0.38755">
        <ele>2.54</ele>
        <time>2018-08-24T10:54:58Z</time>
      </trkpt>
      <trkpt lat="49.33019" lon="-0.38646">
        <ele>2.54</ele>
        <time>2018-08-24T10:55:16Z</time>
      </trkpt>
      <trkpt lat="49.32988" lon="-0.38503">
        <ele>2.54</ele>
        <time>2018-08-24T10:55:34Z</time>
      </trkpt>
      <trkpt lat="49.32979" lon="-0.38449">
        <ele>2.54</ele>
        <time>2018-08-24T10:55:41Z</time>
      </trkpt>
      <trkpt lat="49.32961" lon="-0.38369">
        <ele>3.02</ele>
        <time>2018-08-24T10:55:52Z</time>
      </trkpt>
      <trkpt lat="49.32922" lon="-0.38214">
        <ele>2.54</ele>
        <time>2018-08-24T10:56:14Z</time>
      </trkpt>
      <trkpt lat="49.32881" lon="-0.38067">
        <ele>2.06</ele>
        <time>2018-08-24T10:56:36Z</time>
      </trkpt>
      <trkpt lat="49.32857" lon="-0.37972">
        <ele>2.06</ele>
        <time>2018-08-24T10:56:57Z</time>
      </trkpt>
      <trkpt lat="49.32854" lon="-0.37967">
        <ele>2.06</ele>
        <time>2018-08-24T10:57:04Z</time>
      </trkpt>
      <trkpt lat="49.32847" lon="-0.37967">
        <ele>2.54</ele>
        <time>2018-08-24T10:57:09Z</time>
      </trkpt>
      <trkpt lat="49.32816" lon="-0.37988">
        <ele>3.98</ele>
        <time>2018-08-24T10:57:24Z</time>
      </trkpt>
      <trkpt lat="49.32795" lon="-0.37999">
        <ele>5.42</ele>
        <time>2018-08-24T10:57:32Z</time>
      </trkpt>
      <trkpt lat="49.3276" lon="-0.38026">
        <ele>5.91</ele>
        <time>2018-08-24T10:57:42Z</time>
      </trkpt>
      <trkpt lat="49.32695" lon="-0.38078">
        <ele>6.87</ele>
        <time>2018-08-24T10:58:06Z</time>
      </trkpt>
      <trkpt lat="49.32674" lon="-0.38092">
        <ele>6.39</ele>
        <time>2018-08-24T10:58:26Z</time>
      </trkpt>
    </trkseg>
  </trk>
</gpx>